sensor_id;sensor_type;location;lat;lon;timestamp;pressure;altitude;pressure_sealevel;temperature;humidity
46015;BME280;36844;51.898;-0.874;2023-07-31T00:00:12;99639.22;;;20.86;
46015;BME280;36844;51.898;-0.874;2023-07-31T00:02:38;99642.56;;;20.90;
46015;BME280;36844;51.898;-0.874;2023-07-31T00:05:04;99632.72;;;20.83;
46015;BME280;36844;51.898;-0.874;2023-07-31T00:07:29;99641.06;;;20.89;
46015;BME280;36844;51.898;-0.874;2023-07-31T00:09:55;99616.06;;;20.85;
46015;BME280;36844;51.898;-0.874;2023-07-31T00:12:22;99619.44;;;20.76;
46015;BME280;36844;51.898;-0.874;2023-07-31T00:14:47;99626.56;;;20.83;
46015;BME280;36844;51.898;-0.874;2023-07-31T00:17:12;99618.00;;;20.84;
46015;BME280;36844;51.898;-0.874;2023-07-31T00:19:38;99611.19;;;20.80;
46015;BME280;36844;51.898;-0.874;2023-07-31T00:22:03;99603.22;;;20.76;
46015;BME280;36844;51.898;-0.874;2023-07-31T00:24:29;99619.94;;;20.84;
46015;BME280;36844;51.898;-0.874;2023-07-31T00:26:54;99610.00;;;20.81;
46015;BME280;36844;51.898;-0.874;2023-07-31T00:29:19;99599.63;;;20.79;
46015;BME280;36844;51.898;-0.874;2023-07-31T00:31:45;99589.97;;;20.78;
46015;BME280;36844;51.898;-0.874;2023-07-31T00:34:10;99585.31;;;20.79;
46015;BME280;36844;51.898;-0.874;2023-07-31T00:36:35;99582.28;;;20.77;
46015;BME280;36844;51.898;-0.874;2023-07-31T00:39:00;99565.63;;;20.78;
46015;BME280;36844;51.898;-0.874;2023-07-31T00:41:26;99575.25;;;20.79;
46015;BME280;36844;51.898;-0.874;2023-07-31T00:43:51;99570.72;;;20.76;
46015;BME280;36844;51.898;-0.874;2023-07-31T00:46:16;99578.72;;;20.80;
46015;BME280;36844;51.898;-0.874;2023-07-31T00:48:42;99562.13;;;20.78;
46015;BME280;36844;51.898;-0.874;2023-07-31T00:51:08;99571.69;;;20.82;
46015;BME280;36844;51.898;-0.874;2023-07-31T00:53:33;99556.19;;;20.70;
46015;BME280;36844;51.898;-0.874;2023-07-31T00:55:59;99556.84;;;20.74;
46015;BME280;36844;51.898;-0.874;2023-07-31T00:58:24;99568.19;;;20.82;
46015;BME280;36844;51.898;-0.874;2023-07-31T01:00:50;99561.09;;;20.75;
46015;BME280;36844;51.898;-0.874;2023-07-31T01:03:16;99557.06;;;20.80;
46015;BME280;36844;51.898;-0.874;2023-07-31T01:08:47;99537.78;;;20.78;
46015;BME280;36844;51.898;-0.874;2023-07-31T01:11:29;99543.66;;;20.76;
46015;BME280;36844;51.898;-0.874;2023-07-31T01:13:55;99507.22;;;20.56;
46015;BME280;36844;51.898;-0.874;2023-07-31T01:16:21;99528.28;;;20.73;
46015;BME280;36844;51.898;-0.874;2023-07-31T01:18:46;99507.31;;;20.65;
46015;BME280;36844;51.898;-0.874;2023-07-31T01:26:45;99509.13;;;20.68;
46015;BME280;36844;51.898;-0.874;2023-07-31T01:29:17;99517.03;;;20.75;
46015;BME280;36844;51.898;-0.874;2023-07-31T01:31:48;99490.63;;;20.66;
46015;BME280;36844;51.898;-0.874;2023-07-31T01:34:17;99486.31;;;20.69;
46015;BME280;36844;51.898;-0.874;2023-07-31T01:36:43;99492.66;;;20.75;
46015;BME280;36844;51.898;-0.874;2023-07-31T01:39:08;99467.63;;;20.62;
46015;BME280;36844;51.898;-0.874;2023-07-31T01:41:34;99487.94;;;20.66;
46015;BME280;36844;51.898;-0.874;2023-07-31T01:44:00;99484.25;;;20.73;
46015;BME280;36844;51.898;-0.874;2023-07-31T01:46:25;99487.69;;;20.73;
46015;BME280;36844;51.898;-0.874;2023-07-31T01:48:50;99472.78;;;20.69;
46015;BME280;36844;51.898;-0.874;2023-07-31T01:51:16;99468.25;;;20.66;
46015;BME280;36844;51.898;-0.874;2023-07-31T01:53:41;99470.38;;;20.71;
46015;BME280;36844;51.898;-0.874;2023-07-31T01:56:06;99465.84;;;20.68;
46015;BME280;36844;51.898;-0.874;2023-07-31T01:58:31;99455.59;;;20.63;
46015;BME280;36844;51.898;-0.874;2023-07-31T02:00:57;99465.97;;;20.64;
46015;BME280;36844;51.898;-0.874;2023-07-31T02:03:22;99485.44;;;20.72;
46015;BME280;36844;51.898;-0.874;2023-07-31T02:05:48;99480.03;;;20.72;
46015;BME280;36844;51.898;-0.874;2023-07-31T02:08:14;99471.91;;;20.72;
46015;BME280;36844;51.898;-0.874;2023-07-31T02:10:40;99470.38;;;20.71;
46015;BME280;36844;51.898;-0.874;2023-07-31T02:13:06;99474.41;;;20.66;
46015;BME280;36844;51.898;-0.874;2023-07-31T02:15:31;99450.75;;;20.58;
46015;BME280;36844;51.898;-0.874;2023-07-31T02:17:57;99448.34;;;20.60;
46015;BME280;36844;51.898;-0.874;2023-07-31T02:20:22;99446.38;;;20.60;
46015;BME280;36844;51.898;-0.874;2023-07-31T02:22:48;99439.34;;;20.63;
46015;BME280;36844;51.898;-0.874;2023-07-31T02:25:13;99428.78;;;20.56;
46015;BME280;36844;51.898;-0.874;2023-07-31T02:27:39;99427.25;;;20.55;
46015;BME280;36844;51.898;-0.874;2023-07-31T02:30:04;99428.66;;;20.59;
46015;BME280;36844;51.898;-0.874;2023-07-31T02:32:30;99433.94;;;20.63;
46015;BME280;36844;51.898;-0.874;2023-07-31T02:34:55;99441.94;;;20.66;
46015;BME280;36844;51.898;-0.874;2023-07-31T02:37:20;99419.78;;;20.59;
46015;BME280;36844;51.898;-0.874;2023-07-31T02:39:46;99431.25;;;20.63;
46015;BME280;36844;51.898;-0.874;2023-07-31T02:42:12;99434.91;;;20.69;
46015;BME280;36844;51.898;-0.874;2023-07-31T02:44:37;99438.78;;;20.68;
46015;BME280;36844;51.898;-0.874;2023-07-31T02:47:03;99408.94;;;20.59;
46015;BME280;36844;51.898;-0.874;2023-07-31T02:49:28;99420.09;;;20.61;
46015;BME280;36844;51.898;-0.874;2023-07-31T02:51:54;99411.03;;;20.55;
46015;BME280;36844;51.898;-0.874;2023-07-31T02:54:19;99413.63;;;20.58;
46015;BME280;36844;51.898;-0.874;2023-07-31T02:56:46;99416.50;;;20.64;
46015;BME280;36844;51.898;-0.874;2023-07-31T02:59:12;99414.94;;;20.54;
46015;BME280;36844;51.898;-0.874;2023-07-31T03:01:37;99420.41;;;20.63;
46015;BME280;36844;51.898;-0.874;2023-07-31T03:04:03;99409.84;;;20.56;
46015;BME280;36844;51.898;-0.874;2023-07-31T03:06:28;99421.19;;;20.63;
46015;BME280;36844;51.898;-0.874;2023-07-31T03:08:54;99405.81;;;20.60;
46015;BME280;36844;51.898;-0.874;2023-07-31T03:11:19;99409.59;;;20.63;
46015;BME280;36844;51.898;-0.874;2023-07-31T03:13:44;99399.97;;;20.62;
46015;BME280;36844;51.898;-0.874;2023-07-31T03:16:10;99380.09;;;20.56;
46015;BME280;36844;51.898;-0.874;2023-07-31T03:18:35;99390.47;;;20.57;
46015;BME280;36844;51.898;-0.874;2023-07-31T03:21:00;99376.75;;;20.52;
46015;BME280;36844;51.898;-0.874;2023-07-31T03:23:25;99403.88;;;20.61;
46015;BME280;36844;51.898;-0.874;2023-07-31T03:26:01;99412.31;;;20.63;
46015;BME280;36844;51.898;-0.874;2023-07-31T03:28:26;99407.78;;;20.60;
46015;BME280;36844;51.898;-0.874;2023-07-31T03:30:52;99407.00;;;20.59;
46015;BME280;36844;51.898;-0.874;2023-07-31T03:33:18;99387.28;;;20.50;
46015;BME280;36844;51.898;-0.874;2023-07-31T03:35:44;99399.34;;;20.58;
46015;BME280;36844;51.898;-0.874;2023-07-31T03:38:09;99402.81;;;20.58;
46015;BME280;36844;51.898;-0.874;2023-07-31T03:40:35;99398.25;;;20.55;
46015;BME280;36844;51.898;-0.874;2023-07-31T03:43:00;99403.09;;;20.60;
46015;BME280;36844;51.898;-0.874;2023-07-31T03:45:25;99402.81;;;20.58;
46015;BME280;36844;51.898;-0.874;2023-07-31T03:47:51;99401.28;;;20.57;
46015;BME280;36844;51.898;-0.874;2023-07-31T03:50:16;99404.75;;;20.58;
46015;BME280;36844;51.898;-0.874;2023-07-31T03:52:41;99398.25;;;20.55;
46015;BME280;36844;51.898;-0.874;2023-07-31T03:55:07;99390.16;;;20.55;
46015;BME280;36844;51.898;-0.874;2023-07-31T03:57:32;99393.72;;;20.52;
46015;BME280;36844;51.898;-0.874;2023-07-31T03:59:58;99388.66;;;20.54;
46015;BME280;36844;51.898;-0.874;2023-07-31T04:02:23;99384.56;;;20.50;
46015;BME280;36844;51.898;-0.874;2023-07-31T04:04:48;99372.34;;;20.45;
46015;BME280;36844;51.898;-0.874;2023-07-31T04:07:14;99386.66;;;20.55;
46015;BME280;36844;51.898;-0.874;2023-07-31T04:09:39;99394.69;;;20.58;
46015;BME280;36844;51.898;-0.874;2023-07-31T04:12:04;99395.25;;;20.53;
46015;BME280;36844;51.898;-0.874;2023-07-31T04:14:31;99374.94;;;20.49;
46015;BME280;36844;51.898;-0.874;2023-07-31T04:16:56;99375.22;;;20.51;
46015;BME280;36844;51.898;-0.874;2023-07-31T04:19:21;99387.63;;;20.61;
46015;BME280;36844;51.898;-0.874;2023-07-31T04:21:47;99391.53;;;20.60;
46015;BME280;36844;51.898;-0.874;2023-07-31T04:24:12;99381.75;;;20.53;
46015;BME280;36844;51.898;-0.874;2023-07-31T04:26:37;99382.91;;;20.52;
46015;BME280;36844;51.898;-0.874;2023-07-31T04:29:03;99391.22;;;20.58;
46015;BME280;36844;51.898;-0.874;2023-07-31T04:31:28;99378.38;;;20.49;
46015;BME280;36844;51.898;-0.874;2023-07-31T04:33:53;99396.00;;;20.54;
46015;BME280;36844;51.898;-0.874;2023-07-31T04:36:18;99389.09;;;20.53;
46015;BME280;36844;51.898;-0.874;2023-07-31T04:38:44;99410.16;;;20.58;
46015;BME280;36844;51.898;-0.874;2023-07-31T04:41:09;99403.78;;;20.52;
46015;BME280;36844;51.898;-0.874;2023-07-31T04:43:34;99388.03;;;20.50;
46015;BME280;36844;51.898;-0.874;2023-07-31T04:46:00;99399.56;;;20.51;
46015;BME280;36844;51.898;-0.874;2023-07-31T04:48:25;99388.69;;;20.42;
46015;BME280;36844;51.898;-0.874;2023-07-31T04:50:50;99404.69;;;20.49;
46015;BME280;36844;51.898;-0.874;2023-07-31T04:53:16;99396.84;;;20.51;
46015;BME280;36844;51.898;-0.874;2023-07-31T04:55:41;99405.97;;;20.57;
46015;BME280;36844;51.898;-0.874;2023-07-31T04:58:06;99373.34;;;20.39;
46015;BME280;36844;51.898;-0.874;2023-07-31T05:00:32;99395.03;;;20.48;
46015;BME280;36844;51.898;-0.874;2023-07-31T05:02:57;99396.75;;;20.54;
46015;BME280;36844;51.898;-0.874;2023-07-31T05:05:22;99389.97;;;20.50;
46015;BME280;36844;51.898;-0.874;2023-07-31T05:07:48;99407.91;;;20.56;
46015;BME280;36844;51.898;-0.874;2023-07-31T05:10:13;99395.25;;;20.53;
46015;BME280;36844;51.898;-0.874;2023-07-31T05:12:38;99404.44;;;20.56;
46015;BME280;36844;51.898;-0.874;2023-07-31T05:15:04;99387.28;;;20.50;
46015;BME280;36844;51.898;-0.874;2023-07-31T05:17:29;99391.44;;;20.51;
46015;BME280;36844;51.898;-0.874;2023-07-31T05:19:55;99390.88;;;20.47;
46015;BME280;36844;51.898;-0.874;2023-07-31T05:22:20;99397.44;;;20.46;
46015;BME280;36844;51.898;-0.874;2023-07-31T05:24:45;99406.19;;;20.50;
46015;BME280;36844;51.898;-0.874;2023-07-31T05:27:11;99414.94;;;20.54;
46015;BME280;36844;51.898;-0.874;2023-07-31T05:29:37;99399.69;;;20.47;
46015;BME280;36844;51.898;-0.874;2023-07-31T05:32:03;99391.72;;;20.44;
46015;BME280;36844;51.898;-0.874;2023-07-31T05:34:28;99396.28;;;20.47;
46015;BME280;36844;51.898;-0.874;2023-07-31T05:36:53;99392.03;;;20.46;
46015;BME280;36844;51.898;-0.874;2023-07-31T05:39:18;99393.22;;;20.45;
46015;BME280;36844;51.898;-0.874;2023-07-31T05:41:45;99413.09;;;20.51;
46015;BME280;36844;51.898;-0.874;2023-07-31T05:44:10;99402.22;;;20.42;
46015;BME280;36844;51.898;-0.874;2023-07-31T05:46:35;99409.78;;;20.47;
46015;BME280;36844;51.898;-0.874;2023-07-31T05:49:01;99408.16;;;20.49;
46015;BME280;36844;51.898;-0.874;2023-07-31T05:51:27;99409.31;;;20.48;
46015;BME280;36844;51.898;-0.874;2023-07-31T05:53:52;99399.69;;;20.47;
46015;BME280;36844;51.898;-0.874;2023-07-31T05:56:18;99402.38;;;20.47;
46015;BME280;36844;51.898;-0.874;2023-07-31T05:58:43;99403.78;;;20.52;
46015;BME280;36844;51.898;-0.874;2023-07-31T06:01:09;99412.56;;;20.56;
46015;BME280;36844;51.898;-0.874;2023-07-31T06:03:34;99424.66;;;20.51;
46015;BME280;36844;51.898;-0.874;2023-07-31T06:05:59;99416.00;;;20.56;
46015;BME280;36844;51.898;-0.874;2023-07-31T06:08:25;99404.38;;;20.47;
46015;BME280;36844;51.898;-0.874;2023-07-31T06:10:50;99386.91;;;20.48;
46015;BME280;36844;51.898;-0.874;2023-07-31T06:13:15;99382.97;;;20.40;
46015;BME280;36844;51.898;-0.874;2023-07-31T06:15:41;99411.03;;;20.55;
46015;BME280;36844;51.898;-0.874;2023-07-31T06:18:06;99384.22;;;20.48;
46015;BME280;36844;51.898;-0.874;2023-07-31T06:20:33;99382.53;;;20.41;
46015;BME280;36844;51.898;-0.874;2023-07-31T06:22:59;99396.28;;;20.47;
46015;BME280;36844;51.898;-0.874;2023-07-31T06:25:24;99388.25;;;20.43;
46015;BME280;36844;51.898;-0.874;2023-07-31T06:27:49;99393.84;;;20.49;
46015;BME280;36844;51.898;-0.874;2023-07-31T06:30:15;99395.38;;;20.50;
46015;BME280;36844;51.898;-0.874;2023-07-31T06:32:40;99389.97;;;20.50;
46015;BME280;36844;51.898;-0.874;2023-07-31T06:35:06;99383.47;;;20.47;
46015;BME280;36844;51.898;-0.874;2023-07-31T06:37:31;99386.38;;;20.53;
46015;BME280;36844;51.898;-0.874;2023-07-31T06:39:57;99375.97;;;20.51;
46015;BME280;36844;51.898;-0.874;2023-07-31T06:42:22;99383.34;;;20.51;
46015;BME280;36844;51.898;-0.874;2023-07-31T06:44:47;99379.16;;;20.50;
46015;BME280;36844;51.898;-0.874;2023-07-31T06:47:13;99392.72;;;20.59;
46015;BME280;36844;51.898;-0.874;2023-07-31T06:49:38;99382.78;;;20.56;
46015;BME280;36844;51.898;-0.874;2023-07-31T06:52:04;99382.47;;;20.54;
46015;BME280;36844;51.898;-0.874;2023-07-31T06:54:29;99365.28;;;20.48;
46015;BME280;36844;51.898;-0.874;2023-07-31T06:56:54;99395.44;;;20.59;
46015;BME280;36844;51.898;-0.874;2023-07-31T06:59:20;99374.03;;;20.52;
46015;BME280;36844;51.898;-0.874;2023-07-31T07:01:45;99367.00;;;20.54;
46015;BME280;36844;51.898;-0.874;2023-07-31T07:04:10;99370.78;;;20.57;
46015;BME280;36844;51.898;-0.874;2023-07-31T07:06:36;99389.56;;;20.60;
46015;BME280;36844;51.898;-0.874;2023-07-31T07:09:01;99381.25;;;20.55;
46015;BME280;36844;51.898;-0.874;2023-07-31T07:11:26;99380.97;;;20.53;
46015;BME280;36844;51.898;-0.874;2023-07-31T07:13:52;99383.44;;;20.60;
46015;BME280;36844;51.898;-0.874;2023-07-31T07:16:17;99383.44;;;20.60;
46015;BME280;36844;51.898;-0.874;2023-07-31T07:18:42;99361.09;;;20.47;
46015;BME280;36844;51.898;-0.874;2023-07-31T07:21:08;99347.81;;;20.40;
46015;BME280;36844;51.898;-0.874;2023-07-31T07:23:33;99371.66;;;20.54;
46015;BME280;36844;51.898;-0.874;2023-07-31T07:25:59;99355.47;;;20.41;
46015;BME280;36844;51.898;-0.874;2023-07-31T07:28:24;99387.03;;;20.57;
46015;BME280;36844;51.898;-0.874;2023-07-31T07:30:53;99387.88;;;20.54;
46015;BME280;36844;51.898;-0.874;2023-07-31T07:33:19;99368.63;;;20.52;
46015;BME280;36844;51.898;-0.874;2023-07-31T07:35:44;99346.72;;;20.37;
46015;BME280;36844;51.898;-0.874;2023-07-31T07:38:09;99366.03;;;20.48;
46015;BME280;36844;51.898;-0.874;2023-07-31T07:40:41;99375.84;;;20.55;
46015;BME280;36844;51.898;-0.874;2023-07-31T07:43:07;99360.25;;;20.59;
46015;BME280;36844;51.898;-0.874;2023-07-31T07:45:32;99347.63;;;20.56;
46015;BME280;36844;51.898;-0.874;2023-07-31T07:47:57;99315.47;;;20.36;
46015;BME280;36844;51.898;-0.874;2023-07-31T07:50:24;99350.31;;;20.56;
46015;BME280;36844;51.898;-0.874;2023-07-31T07:52:49;99357.56;;;20.59;
46015;BME280;36844;51.898;-0.874;2023-07-31T07:55:14;99354.56;;;20.57;
46015;BME280;36844;51.898;-0.874;2023-07-31T07:57:40;99362.22;;;20.58;
46015;BME280;36844;51.898;-0.874;2023-07-31T08:00:06;99367.94;;;20.60;
46015;BME280;36844;51.898;-0.874;2023-07-31T08:02:31;99358.31;;;20.59;
46015;BME280;36844;51.898;-0.874;2023-07-31T08:04:57;99369.31;;;20.65;
46015;BME280;36844;51.898;-0.874;2023-07-31T08:07:22;99345.81;;;20.53;
46015;BME280;36844;51.898;-0.874;2023-07-31T08:09:47;99356.97;;;20.64;
46015;BME280;36844;51.898;-0.874;2023-07-31T08:12:12;99348.25;;;20.60;
46015;BME280;36844;51.898;-0.874;2023-07-31T08:14:38;99350.69;;;20.67;
46015;BME280;36844;51.898;-0.874;2023-07-31T08:17:03;99322.59;;;20.43;
46015;BME280;36844;51.898;-0.874;2023-07-31T08:19:29;99327.41;;;20.48;
46015;BME280;36844;51.898;-0.874;2023-07-31T08:21:54;99343.47;;;20.64;
46015;BME280;36844;51.898;-0.874;2023-07-31T08:24:20;99341.97;;;20.63;
46015;BME280;36844;51.898;-0.874;2023-07-31T08:26:45;99326.44;;;20.54;
46015;BME280;36844;51.898;-0.874;2023-07-31T08:29:10;99335.22;;;20.67;
46015;BME280;36844;51.898;-0.874;2023-07-31T08:31:36;99322.84;;;20.57;
46015;BME280;36844;51.898;-0.874;2023-07-31T08:34:01;99306.41;;;20.52;
46015;BME280;36844;51.898;-0.874;2023-07-31T08:36:26;99322.69;;;20.61;
46015;BME280;36844;51.898;-0.874;2023-07-31T08:38:52;99327.09;;;20.67;
46015;BME280;36844;51.898;-0.874;2023-07-31T08:41:17;99324.66;;;20.60;
46015;BME280;36844;51.898;-0.874;2023-07-31T08:43:44;99325.72;;;20.63;
46015;BME280;36844;51.898;-0.874;2023-07-31T08:46:09;99330.50;;;20.59;
46015;BME280;36844;51.898;-0.874;2023-07-31T08:48:37;99333.66;;;20.57;
46015;BME280;36844;51.898;-0.874;2023-07-31T08:51:03;99320.25;;;20.54;
46015;BME280;36844;51.898;-0.874;2023-07-31T08:53:29;99347.69;;;20.65;
46015;BME280;36844;51.898;-0.874;2023-07-31T08:55:54;99323.81;;;20.51;
46015;BME280;36844;51.898;-0.874;2023-07-31T08:58:22;99340.75;;;20.64;
46015;BME280;36844;51.898;-0.874;2023-07-31T09:00:49;99322.38;;;20.59;
46015;BME280;36844;51.898;-0.874;2023-07-31T09:03:18;99315.84;;;20.69;
46015;BME280;36844;51.898;-0.874;2023-07-31T09:05:45;99307.69;;;20.60;
46015;BME280;36844;51.898;-0.874;2023-07-31T09:08:12;99291.56;;;20.56;
46015;BME280;36844;51.898;-0.874;2023-07-31T09:10:45;99279.38;;;20.52;
46015;BME280;36844;51.898;-0.874;2023-07-31T09:13:12;99297.31;;;20.67;
46015;BME280;36844;51.898;-0.874;2023-07-31T09:15:37;99278.66;;;20.60;
46015;BME280;36844;51.898;-0.874;2023-07-31T09:18:04;99287.63;;;20.70;
46015;BME280;36844;51.898;-0.874;2023-07-31T09:20:30;99267.28;;;20.65;
46015;BME280;36844;51.898;-0.874;2023-07-31T09:22:58;99270.13;;;20.71;
46015;BME280;36844;51.898;-0.874;2023-07-31T09:25:29;99271.66;;;20.72;
46015;BME280;36844;51.898;-0.874;2023-07-31T09:28:00;99210.00;;;20.27;
46015;BME280;36844;51.898;-0.874;2023-07-31T09:30:26;99266.53;;;20.65;
46015;BME280;36844;51.898;-0.874;2023-07-31T09:33:00;99289.41;;;20.73;
46015;BME280;36844;51.898;-0.874;2023-07-31T09:35:31;99250.25;;;20.56;
46015;BME280;36844;51.898;-0.874;2023-07-31T09:38:06;99274.66;;;20.74;
46015;BME280;36844;51.898;-0.874;2023-07-31T09:40:40;99279.91;;;20.68;
46015;BME280;36844;51.898;-0.874;2023-07-31T09:43:11;99275.53;;;20.62;
46015;BME280;36844;51.898;-0.874;2023-07-31T09:45:38;99317.94;;;20.74;
46015;BME280;36844;51.898;-0.874;2023-07-31T09:48:11;99338.41;;;20.75;
46015;BME280;36844;51.898;-0.874;2023-07-31T09:50:42;99307.81;;;20.56;
46015;BME280;36844;51.898;-0.874;2023-07-31T09:53:08;99314.31;;;20.68;
46015;BME280;36844;51.898;-0.874;2023-07-31T09:55:35;99317.53;;;20.75;
46015;BME280;36844;51.898;-0.874;2023-07-31T09:58:04;99315.22;;;20.65;
46015;BME280;36844;51.898;-0.874;2023-07-31T10:00:30;99320.66;;;20.74;
46015;BME280;36844;51.898;-0.874;2023-07-31T10:02:59;99302.88;;;20.64;
46015;BME280;36844;51.898;-0.874;2023-07-31T10:05:36;99298.09;;;20.68;
46015;BME280;36844;51.898;-0.874;2023-07-31T10:08:01;99283.66;;;20.71;
46015;BME280;36844;51.898;-0.874;2023-07-31T10:10:28;99266.53;;;20.65;
46015;BME280;36844;51.898;-0.874;2023-07-31T10:12:55;99258.34;;;20.56;
46015;BME280;36844;51.898;-0.874;2023-07-31T10:15:21;99276.19;;;20.75;
46015;BME280;36844;51.898;-0.874;2023-07-31T10:17:48;99271.41;;;20.79;
46015;BME280;36844;51.898;-0.874;2023-07-31T10:20:15;99278.75;;;20.78;
46015;BME280;36844;51.898;-0.874;2023-07-31T10:22:44;99268.69;;;20.70;
46015;BME280;36844;51.898;-0.874;2023-07-31T10:25:15;99269.13;;;20.77;
46015;BME280;36844;51.898;-0.874;2023-07-31T10:27:41;99276.50;;;20.77;
46015;BME280;36844;51.898;-0.874;2023-07-31T10:30:12;99275.91;;;20.73;
46015;BME280;36844;51.898;-0.874;2023-07-31T10:32:40;99290.66;;;20.81;
46015;BME280;36844;51.898;-0.874;2023-07-31T10:35:07;99287.44;;;20.73;
46015;BME280;36844;51.898;-0.874;2023-07-31T10:37:40;99298.72;;;20.72;
46015;BME280;36844;51.898;-0.874;2023-07-31T10:40:12;99292.03;;;20.64;
46015;BME280;36844;51.898;-0.874;2023-07-31T10:42:46;99324.59;;;20.73;
46015;BME280;36844;51.898;-0.874;2023-07-31T10:45:12;99332.75;;;20.82;
46015;BME280;36844;51.898;-0.874;2023-07-31T10:47:42;99344.78;;;20.81;
46015;BME280;36844;51.898;-0.874;2023-07-31T10:50:22;99328.34;;;20.75;
46015;BME280;36844;51.898;-0.874;2023-07-31T10:52:53;99320.88;;;20.79;
46015;BME280;36844;51.898;-0.874;2023-07-31T10:55:29;99325.06;;;20.80;
46015;BME280;36844;51.898;-0.874;2023-07-31T10:57:56;99297.19;;;20.71;
46015;BME280;36844;51.898;-0.874;2023-07-31T11:00:29;99299.22;;;20.79;
46015;BME280;36844;51.898;-0.874;2023-07-31T11:02:58;99266.13;;;20.75;
46015;BME280;36844;51.898;-0.874;2023-07-31T11:08:27;99281.59;;;20.75;
46015;BME280;36844;51.898;-0.874;2023-07-31T11:13:29;99326.16;;;20.83;
46015;BME280;36844;51.898;-0.874;2023-07-31T11:15:54;99319.97;;;20.82;
46015;BME280;36844;51.898;-0.874;2023-07-31T11:18:20;99287.75;;;20.75;
46015;BME280;36844;51.898;-0.874;2023-07-31T11:20:45;99291.78;;;20.71;
46015;BME280;36844;51.898;-0.874;2023-07-31T11:23:11;99334.59;;;20.85;
46015;BME280;36844;51.898;-0.874;2023-07-31T11:25:38;99307.75;;;20.78;
46015;BME280;36844;51.898;-0.874;2023-07-31T11:28:08;99302.47;;;20.74;
46015;BME280;36844;51.898;-0.874;2023-07-31T11:30:35;99322.09;;;20.87;
46015;BME280;36844;51.898;-0.874;2023-07-31T11:33:02;99308.38;;;20.82;
46015;BME280;36844;51.898;-0.874;2023-07-31T11:35:36;99282.19;;;20.70;
46015;BME280;36844;51.898;-0.874;2023-07-31T11:38:02;99320.16;;;20.88;
46015;BME280;36844;51.898;-0.874;2023-07-31T11:40:28;99305.84;;;20.87;
46015;BME280;36844;51.898;-0.874;2023-07-31T11:42:57;99290.47;;;20.75;
46015;BME280;36844;51.898;-0.874;2023-07-31T11:45:25;99296.06;;;20.81;
46015;BME280;36844;51.898;-0.874;2023-07-31T11:47:55;99304.69;;;20.88;
46015;BME280;36844;51.898;-0.874;2023-07-31T11:50:21;99295.75;;;20.79;
46015;BME280;36844;51.898;-0.874;2023-07-31T11:52:49;99290.66;;;20.81;
46015;BME280;36844;51.898;-0.874;2023-07-31T11:55:16;99297.56;;;20.82;
46015;BME280;36844;51.898;-0.874;2023-07-31T11:57:43;99296.06;;;20.81;
46015;BME280;36844;51.898;-0.874;2023-07-31T12:00:11;99288.41;;;20.79;
46015;BME280;36844;51.898;-0.874;2023-07-31T12:02:38;99280.31;;;20.88;
46015;BME280;36844;51.898;-0.874;2023-07-31T12:05:06;99259.03;;;20.78;
46015;BME280;36844;51.898;-0.874;2023-07-31T12:07:54;99241.63;;;20.70;
46015;BME280;36844;51.898;-0.874;2023-07-31T12:10:32;99256.66;;;20.80;
46015;BME280;36844;51.898;-0.874;2023-07-31T12:13:11;99264.09;;;20.88;
46015;BME280;36844;51.898;-0.874;2023-07-31T12:16:01;99225.91;;;20.56;
46015;BME280;36844;51.898;-0.874;2023-07-31T12:18:29;99223.88;;;20.47;
46015;BME280;36844;51.898;-0.874;2023-07-31T12:21:00;99289.13;;;20.80;
46015;BME280;36844;51.898;-0.874;2023-07-31T12:23:30;99279.19;;;20.77;
46015;BME280;36844;51.898;-0.874;2023-07-31T12:26:12;99287.69;;;20.88;
46015;BME280;36844;51.898;-0.874;2023-07-31T12:28:40;99267.47;;;20.80;
46015;BME280;36844;51.898;-0.874;2023-07-31T12:31:09;99268.41;;;20.86;
46015;BME280;36844;51.898;-0.874;2023-07-31T12:33:36;99257.84;;;20.70;
46015;BME280;36844;51.898;-0.874;2023-07-31T12:36:04;99288.44;;;20.88;
46015;BME280;36844;51.898;-0.874;2023-07-31T12:38:31;99268.25;;;20.80;
46015;BME280;36844;51.898;-0.874;2023-07-31T12:40:57;99285.72;;;20.88;
46015;BME280;36844;51.898;-0.874;2023-07-31T12:43:22;99280.31;;;20.88;
46015;BME280;36844;51.898;-0.874;2023-07-31T12:45:48;99262.03;;;20.71;
46015;BME280;36844;51.898;-0.874;2023-07-31T12:48:14;99257.09;;;20.78;
46015;BME280;36844;51.898;-0.874;2023-07-31T12:50:39;99247.84;;;20.88;
46015;BME280;36844;51.898;-0.874;2023-07-31T12:53:05;99215.38;;;20.88;
46015;BME280;36844;51.898;-0.874;2023-07-31T12:55:30;99164.19;;;20.72;
46015;BME280;36844;51.898;-0.874;2023-07-31T12:57:56;99175.47;;;20.80;
46015;BME280;36844;51.898;-0.874;2023-07-31T13:00:22;99175.78;;;20.73;
46015;BME280;36844;51.898;-0.874;2023-07-31T13:02:47;99207.53;;;20.81;
46015;BME280;36844;51.898;-0.874;2023-07-31T13:05:13;99219.84;;;20.82;
46015;BME280;36844;51.898;-0.874;2023-07-31T13:07:39;99162.53;;;20.75;
46015;BME280;36844;51.898;-0.874;2023-07-31T13:10:05;99133.38;;;20.79;
46015;BME280;36844;51.898;-0.874;2023-07-31T13:12:31;99158.81;;;20.81;
46015;BME280;36844;51.898;-0.874;2023-07-31T13:14:56;99210.66;;;20.80;
46015;BME280;36844;51.898;-0.874;2023-07-31T13:17:21;99213.06;;;20.87;
46015;BME280;36844;51.898;-0.874;2023-07-31T13:19:47;99190.50;;;20.72;
46015;BME280;36844;51.898;-0.874;2023-07-31T13:22:12;99202.25;;;20.87;
46015;BME280;36844;51.898;-0.874;2023-07-31T13:24:37;99201.03;;;20.70;
46015;BME280;36844;51.898;-0.874;2023-07-31T13:27:03;99232.09;;;20.65;
46015;BME280;36844;51.898;-0.874;2023-07-31T13:29:29;99316.81;;;20.84;
46015;BME280;36844;51.898;-0.874;2023-07-31T13:31:55;99283.44;;;20.87;
46015;BME280;36844;51.898;-0.874;2023-07-31T13:34:20;99296.94;;;20.78;
46015;BME280;36844;51.898;-0.874;2023-07-31T13:36:46;99269.13;;;20.77;
46015;BME280;36844;51.898;-0.874;2023-07-31T13:39:11;99278.75;;;20.78;
46015;BME280;36844;51.898;-0.874;2023-07-31T13:41:36;99273.78;;;20.77;
46015;BME280;36844;51.898;-0.874;2023-07-31T13:44:02;99260.00;;;20.84;
46015;BME280;36844;51.898;-0.874;2023-07-31T13:46:27;99253.22;;;20.79;
46015;BME280;36844;51.898;-0.874;2023-07-31T13:48:53;99217.09;;;20.73;
46015;BME280;36844;51.898;-0.874;2023-07-31T13:51:21;99213.22;;;20.83;
46015;BME280;36844;51.898;-0.874;2023-07-31T13:53:46;99206.44;;;20.79;